sensor_id;sensor_type;location;lat;lon;timestamp;temperature;humidity
18321;DHT22;54904;54.350;18.664;2022-07-29T00:00:55;19.90;96.20
18321;DHT22;54904;54.350;18.664;2022-07-29T00:03:22;20.00;96.30
18321;DHT22;54904;54.350;18.664;2022-07-29T00:05:49;20.00;96.30
18321;DHT22;54904;54.350;18.664;2022-07-29T00:08:19;20.00;96.30
18321;DHT22;54904;54.350;18.664;2022-07-29T00:10:46;20.00;96.40
18321;DHT22;54904;54.350;18.664;2022-07-29T00:13:13;20.00;96.40
18321;DHT22;54904;54.350;18.664;2022-07-29T00:15:40;20.00;96.40
18321;DHT22;54904;54.350;18.664;2022-07-29T00:18:07;19.90;96.40
18321;DHT22;54904;54.350;18.664;2022-07-29T00:20:34;19.90;96.50
18321;DHT22;54904;54.350;18.664;2022-07-29T00:23:01;19.80;96.50
18321;DHT22;54904;54.350;18.664;2022-07-29T00:25:29;19.80;96.60
18321;DHT22;54904;54.350;18.664;2022-07-29T00:27:56;19.80;96.60
18321;DHT22;54904;54.350;18.664;2022-07-29T00:30:23;19.90;97.00
18321;DHT22;54904;54.350;18.664;2022-07-29T00:32:50;19.90;96.70
18321;DHT22;54904;54.350;18.664;2022-07-29T00:35:17;19.80;96.70
18321;DHT22;54904;54.350;18.664;2022-07-29T00:38:02;19.80;96.70
18321;DHT22;54904;54.350;18.664;2022-07-29T00:40:30;19.80;96.80
18321;DHT22;54904;54.350;18.664;2022-07-29T00:42:57;19.70;96.80
18321;DHT22;54904;54.350;18.664;2022-07-29T00:45:24;19.70;96.90
18321;DHT22;54904;54.350;18.664;2022-07-29T00:47:51;19.60;96.90
18321;DHT22;54904;54.350;18.664;2022-07-29T00:50:18;19.60;97.10
18321;DHT22;54904;54.350;18.664;2022-07-29T00:52:45;19.60;97.20
18321;DHT22;54904;54.350;18.664;2022-07-29T00:55:14;19.60;97.20
18321;DHT22;54904;54.350;18.664;2022-07-29T00:57:44;19.60;97.20
18321;DHT22;54904;54.350;18.664;2022-07-29T01:00:13;19.60;97.20
18321;DHT22;54904;54.350;18.664;2022-07-29T01:02:41;19.50;97.30
18321;DHT22;54904;54.350;18.664;2022-07-29T01:05:08;19.50;97.40
18321;DHT22;54904;54.350;18.664;2022-07-29T01:07:36;19.40;97.50
18321;DHT22;54904;54.350;18.664;2022-07-29T01:10:05;19.50;97.60
18321;DHT22;54904;54.350;18.664;2022-07-29T01:12:34;19.50;97.70
18321;DHT22;54904;54.350;18.664;2022-07-29T01:15:05;19.50;97.70
18321;DHT22;54904;54.350;18.664;2022-07-29T01:17:36;19.50;97.70
18321;DHT22;54904;54.350;18.664;2022-07-29T01:20:10;19.60;97.80
18321;DHT22;54904;54.350;18.664;2022-07-29T01:23:00;19.60;97.80
18321;DHT22;54904;54.350;18.664;2022-07-29T01:25:54;19.50;97.70
18321;DHT22;54904;54.350;18.664;2022-07-29T01:28:49;19.50;97.80
18321;DHT22;54904;54.350;18.664;2022-07-29T01:31:31;19.50;97.90
18321;DHT22;54904;54.350;18.664;2022-07-29T01:34:03;19.50;98.00
18321;DHT22;54904;54.350;18.664;2022-07-29T01:36:35;19.50;98.00
18321;DHT22;54904;54.350;18.664;2022-07-29T01:39:06;19.50;98.10
18321;DHT22;54904;54.350;18.664;2022-07-29T01:41:38;19.50;98.10
18321;DHT22;54904;54.350;18.664;2022-07-29T01:44:18;19.50;98.50
18321;DHT22;54904;54.350;18.664;2022-07-29T01:46:50;19.40;98.20
18321;DHT22;54904;54.350;18.664;2022-07-29T01:49:22;19.40;98.30
18321;DHT22;54904;54.350;18.664;2022-07-29T01:51:53;19.40;98.40
18321;DHT22;54904;54.350;18.664;2022-07-29T01:54:26;19.40;98.80
18321;DHT22;54904;54.350;18.664;2022-07-29T01:56:56;19.30;98.50
18321;DHT22;54904;54.350;18.664;2022-07-29T01:59:26;19.30;98.60
18321;DHT22;54904;54.350;18.664;2022-07-29T02:01:58;19.30;98.70
18321;DHT22;54904;54.350;18.664;2022-07-29T02:04:27;19.30;98.70
18321;DHT22;54904;54.350;18.664;2022-07-29T02:07:00;19.20;98.70
18321;DHT22;54904;54.350;18.664;2022-07-29T02:09:29;19.30;99.20
18321;DHT22;54904;54.350;18.664;2022-07-29T02:11:59;19.30;98.90
18321;DHT22;54904;54.350;18.664;2022-07-29T02:14:31;19.30;98.90
18321;DHT22;54904;54.350;18.664;2022-07-29T02:17:00;19.30;98.90
18321;DHT22;54904;54.350;18.664;2022-07-29T02:19:29;19.30;98.90
18321;DHT22;54904;54.350;18.664;2022-07-29T02:21:57;19.20;98.90
18321;DHT22;54904;54.350;18.664;2022-07-29T02:24:26;19.20;99.00
18321;DHT22;54904;54.350;18.664;2022-07-29T02:26:54;19.20;99.10
18321;DHT22;54904;54.350;18.664;2022-07-29T02:29:24;19.20;99.10
18321;DHT22;54904;54.350;18.664;2022-07-29T02:31:55;19.20;99.20
18321;DHT22;54904;54.350;18.664;2022-07-29T02:34:24;19.20;99.30
18321;DHT22;54904;54.350;18.664;2022-07-29T02:36:52;19.20;99.30
18321;DHT22;54904;54.350;18.664;2022-07-29T02:39:21;19.20;99.30
18321;DHT22;54904;54.350;18.664;2022-07-29T02:41:52;19.10;99.30
18321;DHT22;54904;54.350;18.664;2022-07-29T02:44:24;19.10;99.40
18321;DHT22;54904;54.350;18.664;2022-07-29T02:46:54;19.10;99.50
18321;DHT22;54904;54.350;18.664;2022-07-29T02:49:31;19.10;99.50
18321;DHT22;54904;54.350;18.664;2022-07-29T02:52:03;19.10;99.50
18321;DHT22;54904;54.350;18.664;2022-07-29T02:54:36;19.10;99.60
18321;DHT22;54904;54.350;18.664;2022-07-29T02:57:09;19.10;99.60
18321;DHT22;54904;54.350;18.664;2022-07-29T02:59:40;19.10;99.60
18321;DHT22;54904;54.350;18.664;2022-07-29T03:02:12;19.10;99.60
18321;DHT22;54904;54.350;18.664;2022-07-29T03:04:41;19.10;99.70
18321;DHT22;54904;54.350;18.664;2022-07-29T03:07:11;19.10;99.70
18321;DHT22;54904;54.350;18.664;2022-07-29T03:09:40;19.10;99.80
18321;DHT22;54904;54.350;18.664;2022-07-29T03:12:08;19.20;99.80
18321;DHT22;54904;54.350;18.664;2022-07-29T03:14:36;19.10;99.80
18321;DHT22;54904;54.350;18.664;2022-07-29T03:17:03;19.20;99.90
18321;DHT22;54904;54.350;18.664;2022-07-29T03:19:32;19.10;99.90
18321;DHT22;54904;54.350;18.664;2022-07-29T03:22:00;19.10;99.90
18321;DHT22;54904;54.350;18.664;2022-07-29T03:24:31;19.10;99.90
18321;DHT22;54904;54.350;18.664;2022-07-29T03:26:58;19.10;99.90
18321;DHT22;54904;54.350;18.664;2022-07-29T03:29:26;19.10;99.90
18321;DHT22;54904;54.350;18.664;2022-07-29T03:31:53;19.10;99.90
18321;DHT22;54904;54.350;18.664;2022-07-29T03:34:20;19.10;99.90
18321;DHT22;54904;54.350;18.664;2022-07-29T03:36:49;19.20;99.90
18321;DHT22;54904;54.350;18.664;2022-07-29T03:39:18;19.20;99.80
18321;DHT22;54904;54.350;18.664;2022-07-29T03:41:48;19.30;99.90
18321;DHT22;54904;54.350;18.664;2022-07-29T03:44:17;19.30;99.80
18321;DHT22;54904;54.350;18.664;2022-07-29T03:46:46;19.30;99.80
18321;DHT22;54904;54.350;18.664;2022-07-29T03:49:16;19.40;99.80
18321;DHT22;54904;54.350;18.664;2022-07-29T03:51:43;19.30;99.80
18321;DHT22;54904;54.350;18.664;2022-07-29T03:54:12;19.30;99.80
18321;DHT22;54904;54.350;18.664;2022-07-29T03:56:42;19.30;99.80
18321;DHT22;54904;54.350;18.664;2022-07-29T03:59:13;19.30;99.80
18321;DHT22;54904;54.350;18.664;2022-07-29T04:01:41;19.40;99.90
18321;DHT22;54904;54.350;18.664;2022-07-29T04:04:09;19.40;99.90
18321;DHT22;54904;54.350;18.664;2022-07-29T04:06:39;19.40;99.90
18321;DHT22;54904;54.350;18.664;2022-07-29T04:09:07;19.40;99.90
18321;DHT22;54904;54.350;18.664;2022-07-29T04:11:36;19.50;99.90
18321;DHT22;54904;54.350;18.664;2022-07-29T04:14:04;19.50;99.90
18321;DHT22;54904;54.350;18.664;2022-07-29T04:16:31;19.50;99.90
18321;DHT22;54904;54.350;18.664;2022-07-29T04:18:59;19.50;99.90
18321;DHT22;54904;54.350;18.664;2022-07-29T04:21:26;19.50;99.90
18321;DHT22;54904;54.350;18.664;2022-07-29T04:23:53;19.50;99.90
18321;DHT22;54904;54.350;18.664;2022-07-29T04:26:20;19.50;99.90
18321;DHT22;54904;54.350;18.664;2022-07-29T04:28:49;19.50;99.90
18321;DHT22;54904;54.350;18.664;2022-07-29T04:31:16;19.50;99.90
18321;DHT22;54904;54.350;18.664;2022-07-29T04:33:42;19.50;99.90
18321;DHT22;54904;54.350;18.664;2022-07-29T04:36:09;19.50;99.90
18321;DHT22;54904;54.350;18.664;2022-07-29T04:38:38;19.50;99.90
18321;DHT22;54904;54.350;18.664;2022-07-29T04:41:05;19.50;99.90
18321;DHT22;54904;54.350;18.664;2022-07-29T04:43:34;19.50;99.90
18321;DHT22;54904;54.350;18.664;2022-07-29T04:46:03;19.50;99.90
18321;DHT22;54904;54.350;18.664;2022-07-29T04:48:30;19.60;99.90
18321;DHT22;54904;54.350;18.664;2022-07-29T04:50:57;19.60;99.90
18321;DHT22;54904;54.350;18.664;2022-07-29T04:53:24;19.60;99.90
18321;DHT22;54904;54.350;18.664;2022-07-29T04:55:51;19.60;99.90
18321;DHT22;54904;54.350;18.664;2022-07-29T04:58:18;19.70;99.90
18321;DHT22;54904;54.350;18.664;2022-07-29T05:00:45;19.70;99.90
18321;DHT22;54904;54.350;18.664;2022-07-29T05:03:13;19.70;99.90
18321;DHT22;54904;54.350;18.664;2022-07-29T05:05:40;19.70;99.90
18321;DHT22;54904;54.350;18.664;2022-07-29T05:08:08;19.70;99.90
18321;DHT22;54904;54.350;18.664;2022-07-29T05:10:35;19.70;99.90
18321;DHT22;54904;54.350;18.664;2022-07-29T05:13:04;19.80;99.90
18321;DHT22;54904;54.350;18.664;2022-07-29T05:15:32;19.80;99.90
18321;DHT22;54904;54.350;18.664;2022-07-29T05:17:59;19.80;99.90
18321;DHT22;54904;54.350;18.664;2022-07-29T05:20:28;19.70;99.90
18321;DHT22;54904;54.350;18.664;2022-07-29T05:22:56;19.80;99.90
18321;DHT22;54904;54.350;18.664;2022-07-29T05:25:23;19.80;99.90
18321;DHT22;54904;54.350;18.664;2022-07-29T05:27:50;19.80;99.90
18321;DHT22;54904;54.350;18.664;2022-07-29T05:30:17;19.90;99.90
18321;DHT22;54904;54.350;18.664;2022-07-29T05:32:44;19.90;99.90
18321;DHT22;54904;54.350;18.664;2022-07-29T05:35:12;19.90;99.90
18321;DHT22;54904;54.350;18.664;2022-07-29T05:37:41;19.90;99.90
18321;DHT22;54904;54.350;18.664;2022-07-29T05:40:08;19.90;99.90
18321;DHT22;54904;54.350;18.664;2022-07-29T05:42:35;19.90;99.90
18321;DHT22;54904;54.350;18.664;2022-07-29T05:45:03;19.90;99.90
18321;DHT22;54904;54.350;18.664;2022-07-29T05:47:30;19.90;99.90
18321;DHT22;54904;54.350;18.664;2022-07-29T05:49:57;19.90;99.90
18321;DHT22;54904;54.350;18.664;2022-07-29T05:52:24;19.90;99.90
18321;DHT22;54904;54.350;18.664;2022-07-29T05:54:53;19.90;99.90
18321;DHT22;54904;54.350;18.664;2022-07-29T05:57:21;19.90;99.90
18321;DHT22;54904;54.350;18.664;2022-07-29T05:59:49;19.90;99.90
18321;DHT22;54904;54.350;18.664;2022-07-29T06:02:17;19.90;99.90
18321;DHT22;54904;54.350;18.664;2022-07-29T06:04:44;19.90;99.90
18321;DHT22;54904;54.350;18.664;2022-07-29T06:07:11;19.90;99.90
18321;DHT22;54904;54.350;18.664;2022-07-29T06:09:38;20.00;99.90
18321;DHT22;54904;54.350;18.664;2022-07-29T06:12:06;20.00;99.90
18321;DHT22;54904;54.350;18.664;2022-07-29T06:14:33;20.10;99.90
18321;DHT22;54904;54.350;18.664;2022-07-29T06:17:01;20.10;99.90
18321;DHT22;54904;54.350;18.664;2022-07-29T06:19:28;20.20;99.90
18321;DHT22;54904;54.350;18.664;2022-07-29T06:21:55;20.30;99.80
18321;DHT22;54904;54.350;18.664;2022-07-29T06:24:22;20.30;99.50
18321;DHT22;54904;54.350;18.664;2022-07-29T06:26:49;20.30;99.30
18321;DHT22;54904;54.350;18.664;2022-07-29T06:29:17;20.30;98.70
18321;DHT22;54904;54.350;18.664;2022-07-29T06:31:47;20.40;98.40
18321;DHT22;54904;54.350;18.664;2022-07-29T06:34:14;20.40;98.00
18321;DHT22;54904;54.350;18.664;2022-07-29T06:36:41;20.40;97.90
18321;DHT22;54904;54.350;18.664;2022-07-29T06:39:08;20.40;97.60
18321;DHT22;54904;54.350;18.664;2022-07-29T06:41:35;20.40;97.50
18321;DHT22;54904;54.350;18.664;2022-07-29T06:44:08;20.50;97.50
18321;DHT22;54904;54.350;18.664;2022-07-29T06:46:37;20.50;97.20
18321;DHT22;54904;54.350;18.664;2022-07-29T06:49:04;20.50;96.90
18321;DHT22;54904;54.350;18.664;2022-07-29T06:51:31;20.60;97.00
18321;DHT22;54904;54.350;18.664;2022-07-29T06:53:58;20.60;96.70
18321;DHT22;54904;54.350;18.664;2022-07-29T06:56:26;20.70;96.20
18321;DHT22;54904;54.350;18.664;2022-07-29T06:58:53;20.70;96.20
18321;DHT22;54904;54.350;18.664;2022-07-29T07:01:20;20.70;96.20
18321;DHT22;54904;54.350;18.664;2022-07-29T07:03:48;20.80;96.10
18321;DHT22;54904;54.350;18.664;2022-07-29T07:06:15;20.80;96.10
18321;DHT22;54904;54.350;18.664;2022-07-29T07:08:42;20.90;96.00
18321;DHT22;54904;54.350;18.664;2022-07-29T07:11:09;20.90;95.90
18321;DHT22;54904;54.350;18.664;2022-07-29T07:13:36;20.90;95.80
18321;DHT22;54904;54.350;18.664;2022-07-29T07:16:04;21.00;95.70
18321;DHT22;54904;54.350;18.664;2022-07-29T07:18:31;21.00;95.60
18321;DHT22;54904;54.350;18.664;2022-07-29T07:21:00;21.00;95.10
18321;DHT22;54904;54.350;18.664;2022-07-29T07:23:27;21.00;95.10
18321;DHT22;54904;54.350;18.664;2022-07-29T07:25:54;21.10;94.90
18321;DHT22;54904;54.350;18.664;2022-07-29T07:28:21;21.10;94.50
18321;DHT22;54904;54.350;18.664;2022-07-29T07:30:48;21.20;94.50
18321;DHT22;54904;54.350;18.664;2022-07-29T07:33:15;21.20;94.60
18321;DHT22;54904;54.350;18.664;2022-07-29T07:35:42;21.20;94.50
18321;DHT22;54904;54.350;18.664;2022-07-29T07:38:11;21.30;94.40
18321;DHT22;54904;54.350;18.664;2022-07-29T07:40:38;21.40;94.60
18321;DHT22;54904;54.350;18.664;2022-07-29T07:43:05;21.50;94.00
18321;DHT22;54904;54.350;18.664;2022-07-29T07:45:32;21.50;93.70
18321;DHT22;54904;54.350;18.664;2022-07-29T07:47:59;21.50;93.10
18321;DHT22;54904;54.350;18.664;2022-07-29T07:50:26;21.50;93.10
18321;DHT22;54904;54.350;18.664;2022-07-29T07:52:54;21.60;93.30
18321;DHT22;54904;54.350;18.664;2022-07-29T07:55:25;21.60;93.10
18321;DHT22;54904;54.350;18.664;2022-07-29T07:57:52;21.70;92.90
18321;DHT22;54904;54.350;18.664;2022-07-29T08:00:20;21.70;92.10
18321;DHT22;54904;54.350;18.664;2022-07-29T08:02:47;21.80;92.10
18321;DHT22;54904;54.350;18.664;2022-07-29T08:05:15;21.80;92.30
18321;DHT22;54904;54.350;18.664;2022-07-29T08:07:44;21.90;91.70
18321;DHT22;54904;54.350;18.664;2022-07-29T08:10:12;21.90;90.50
18321;DHT22;54904;54.350;18.664;2022-07-29T08:12:40;21.90;90.60
18321;DHT22;54904;54.350;18.664;2022-07-29T08:15:08;22.00;90.80
18321;DHT22;54904;54.350;18.664;2022-07-29T08:17:35;22.00;90.80
18321;DHT22;54904;54.350;18.664;2022-07-29T08:20:03;22.00;90.70
18321;DHT22;54904;54.350;18.664;2022-07-29T08:22:30;22.10;90.20
18321;DHT22;54904;54.350;18.664;2022-07-29T08:24:57;22.00;90.20
18321;DHT22;54904;54.350;18.664;2022-07-29T08:27:24;22.10;90.50
18321;DHT22;54904;54.350;18.664;2022-07-29T08:29:53;22.10;90.20
18321;DHT22;54904;54.350;18.664;2022-07-29T08:32:21;22.20;89.40
18321;DHT22;54904;54.350;18.664;2022-07-29T08:34:48;22.20;88.60
18321;DHT22;54904;54.350;18.664;2022-07-29T08:37:15;22.20;89.10
18321;DHT22;54904;54.350;18.664;2022-07-29T08:39:42;22.30;89.60
18321;DHT22;54904;54.350;18.664;2022-07-29T08:42:10;22.40;90.20
18321;DHT22;54904;54.350;18.664;2022-07-29T08:44:38;22.50;90.60
18321;DHT22;54904;54.350;18.664;2022-07-29T08:47:07;22.50;90.60
18321;DHT22;54904;54.350;18.664;2022-07-29T08:49:34;22.60;90.10
18321;DHT22;54904;54.350;18.664;2022-07-29T08:52:02;22.60;90.10
18321;DHT22;54904;54.350;18.664;2022-07-29T08:54:29;22.70;90.30
18321;DHT22;54904;54.350;18.664;2022-07-29T08:56:57;22.80;90.50
18321;DHT22;54904;54.350;18.664;2022-07-29T08:59:26;22.90;90.40
18321;DHT22;54904;54.350;18.664;2022-07-29T09:01:54;23.00;90.30
18321;DHT22;54904;54.350;18.664;2022-07-29T09:04:25;23.10;90.30
18321;DHT22;54904;54.350;18.664;2022-07-29T09:06:54;23.20;90.00
18321;DHT22;54904;54.350;18.664;2022-07-29T09:09:23;23.30;89.60
18321;DHT22;54904;54.350;18.664;2022-07-29T09:11:51;23.40;90.00
18321;DHT22;54904;54.350;18.664;2022-07-29T09:14:19;23.50;90.00
18321;DHT22;54904;54.350;18.664;2022-07-29T09:16:48;23.60;89.80
18321;DHT22;54904;54.350;18.664;2022-07-29T09:19:26;23.60;89.50
18321;DHT22;54904;54.350;18.664;2022-07-29T09:21:54;23.80;90.10
18321;DHT22;54904;54.350;18.664;2022-07-29T09:24:25;23.90;88.70
18321;DHT22;54904;54.350;18.664;2022-07-29T09:26:52;24.00;88.00
18321;DHT22;54904;54.350;18.664;2022-07-29T09:29:21;24.00;87.70
18321;DHT22;54904;54.350;18.664;2022-07-29T09:31:51;24.10;87.70
18321;DHT22;54904;54.350;18.664;2022-07-29T09:34:22;24.10;87.70
18321;DHT22;54904;54.350;18.664;2022-07-29T09:36:52;24.10;87.50
18321;DHT22;54904;54.350;18.664;2022-07-29T09:39:30;24.20;86.80
18321;DHT22;54904;54.350;18.664;2022-07-29T09:42:00;24.10;85.80
18321;DHT22;54904;54.350;18.664;2022-07-29T09:44:40;24.20;85.80
18321;DHT22;54904;54.350;18.664;2022-07-29T09:47:08;24.20;85.60
18321;DHT22;54904;54.350;18.664;2022-07-29T09:49:36;24.30;85.30
18321;DHT22;54904;54.350;18.664;2022-07-29T09:52:17;24.30;85.40
18321;DHT22;54904;54.350;18.664;2022-07-29T09:54:45;24.40;85.10
18321;DHT22;54904;54.350;18.664;2022-07-29T09:57:23;24.40;84.10
18321;DHT22;54904;54.350;18.664;2022-07-29T09:59:56;24.40;83.60
18321;DHT22;54904;54.350;18.664;2022-07-29T10:02:28;24.40;83.00
18321;DHT22;54904;54.350;18.664;2022-07-29T10:04:56;24.50;82.80
18321;DHT22;54904;54.350;18.664;2022-07-29T10:07:24;24.50;82.50
18321;DHT22;54904;54.350;18.664;2022-07-29T10:09:56;24.50;81.60
18321;DHT22;54904;54.350;18.664;2022-07-29T10:12:24;24.60;80.60
18321;DHT22;54904;54.350;18.664;2022-07-29T10:14:51;24.60;79.50
18321;DHT22;54904;54.350;18.664;2022-07-29T10:17:18;24.60;78.90
18321;DHT22;54904;54.350;18.664;2022-07-29T10:19:46;24.60;78.90
18321;DHT22;54904;54.350;18.664;2022-07-29T10:22:14;24.70;78.70
18321;DHT22;54904;54.350;18.664;2022-07-29T10:24:43;24.80;77.70
18321;DHT22;54904;54.350;18.664;2022-07-29T10:27:10;24.80;75.20
18321;DHT22;54904;54.350;18.664;2022-07-29T10:29:38;24.90;73.70
18321;DHT22;54904;54.350;18.664;2022-07-29T10:32:22;24.90;69.30
18321;DHT22;54904;54.350;18.664;2022-07-29T10:35:01;24.90;67.20
18321;DHT22;54904;54.350;18.664;2022-07-29T10:37:42;24.90;65.90
18321;DHT22;54904;54.350;18.664;2022-07-29T10:40:22;24.90;62.90
18321;DHT22;54904;54.350;18.664;2022-07-29T10:43:18;24.90;61.80
18321;DHT22;54904;54.350;18.664;2022-07-29T10:45:48;24.90;61.90
18321;DHT22;54904;54.350;18.664;2022-07-29T10:48:16;24.90;60.10
18321;DHT22;54904;54.350;18.664;2022-07-29T10:50:53;24.90;59.80
18321;DHT22;54904;54.350;18.664;2022-07-29T10:53:20;24.90;60.40
18321;DHT22;54904;54.350;18.664;2022-07-29T10:55:50;24.90;59.80
18321;DHT22;54904;54.350;18.664;2022-07-29T10:58:19;25.00;60.50
18321;DHT22;54904;54.350;18.664;2022-07-29T11:00:47;25.00;60.60
18321;DHT22;54904;54.350;18.664;2022-07-29T11:03:43;25.10;60.40
18321;DHT22;54904;54.350;18.664;2022-07-29T11:06:12;25.10;60.70
18321;DHT22;54904;54.350;18.664;2022-07-29T11:08:39;25.20;60.60
18321;DHT22;54904;54.350;18.664;2022-07-29T11:11:32;25.20;59.80
18321;DHT22;54904;54.350;18.664;2022-07-29T11:13:59;25.20;59.70
18321;DHT22;54904;54.350;18.664;2022-07-29T11:17:02;25.30;59.80
18321;DHT22;54904;54.350;18.664;2022-07-29T11:19:30;25.30;59.90
18321;DHT22;54904;54.350;18.664;2022-07-29T11:21:58;25.40;59.70
18321;DHT22;54904;54.350;18.664;2022-07-29T11:24:26;25.40;59.10
18321;DHT22;54904;54.350;18.664;2022-07-29T11:27:13;25.40;58.80
18321;DHT22;54904;54.350;18.664;2022-07-29T11:29:52;25.40;59.30
18321;DHT22;54904;54.350;18.664;2022-07-29T11:32:20;25.50;58.90
18321;DHT22;54904;54.350;18.664;2022-07-29T11:34:48;25.50;57.90
18321;DHT22;54904;54.350;18.664;2022-07-29T11:37:23;25.50;57.60
18321;DHT22;54904;54.350;18.664;2022-07-29T11:40:20;25.50;58.50
18321;DHT22;54904;54.350;18.664;2022-07-29T11:42:50;25.50;57.60
18321;DHT22;54904;54.350;18.664;2022-07-29T11:45:22;25.50;57.50
18321;DHT22;54904;54.350;18.664;2022-07-29T11:47:52;25.60;57.10
18321;DHT22;54904;54.350;18.664;2022-07-29T11:50:33;25.60;56.40
18321;DHT22;54904;54.350;18.664;2022-07-29T11:53:03;25.60;56.80
18321;DHT22;54904;54.350;18.664;2022-07-29T11:55:37;25.70;57.70
18321;DHT22;54904;54.350;18.664;2022-07-29T11:58:06;25.70;58.00
18321;DHT22;54904;54.350;18.664;2022-07-29T12:00:35;25.70;58.90
18321;DHT22;54904;54.350;18.664;2022-07-29T12:03:05;25.60;58.70
18321;DHT22;54904;54.350;18.664;2022-07-29T12:05:36;25.70;58.50
18321;DHT22;54904;54.350;18.664;2022-07-29T12:08:14;25.70;58.70
18321;DHT22;54904;54.350;18.664;2022-07-29T12:10:42;25.70;58.60
18321;DHT22;54904;54.350;18.664;2022-07-29T12:13:11;25.70;58.60
18321;DHT22;54904;54.350;18.664;2022-07-29T12:15:38;25.80;59.20
18321;DHT22;54904;54.350;18.664;2022-07-29T12:18:14;25.80;59.00
18321;DHT22;54904;54.350;18.664;2022-07-29T12:20:41;25.90;58.70
18321;DHT22;54904;54.350;18.664;2022-07-29T12:23:11;26.00;58.80
18321;DHT22;54904;54.350;18.664;2022-07-29T12:25:43;26.00;59.00
18321;DHT22;54904;54.350;18.664;2022-07-29T12:28:13;26.00;58.70
18321;DHT22;54904;54.350;18.664;2022-07-29T12:30:45;26.00;58.70
18321;DHT22;54904;54.350;18.664;2022-07-29T12:33:19;25.90;59.50
18321;DHT22;54904;54.350;18.664;2022-07-29T12:35:49;25.90;59.80
18321;DHT22;54904;54.350;18.664;2022-07-29T12:38:16;25.80;59.60
18321;DHT22;54904;54.350;18.664;2022-07-29T12:40:45;25.80;59.70
18321;DHT22;54904;54.350;18.664;2022-07-29T12:43:15;25.80;60.10
18321;DHT22;54904;54.350;18.664;2022-07-29T12:45:45;25.70;61.20
18321;DHT22;54904;54.350;18.664;2022-07-29T12:48:13;25.70;61.60
18321;DHT22;54904;54.350;18.664;2022-07-29T12:50:54;25.60;62.40
18321;DHT22;54904;54.350;18.664;2022-07-29T12:53:22;25.60;62.80
18321;DHT22;54904;54.350;18.664;2022-07-29T12:55:51;25.60;62.50
18321;DHT22;54904;54.350;18.664;2022-07-29T12:58:31;25.60;63.10
18321;DHT22;54904;54.350;18.664;2022-07-29T13:01:04;25.70;64.30
18321;DHT22;54904;54.350;18.664;2022-07-29T13:03:48;25.70;64.50
18321;DHT22;54904;54.350;18.664;2022-07-29T13:06:36;25.70;64.20
18321;DHT22;54904;54.350;18.664;2022-07-29T13:09:06;25.70;64.10
18321;DHT22;54904;54.350;18.664;2022-07-29T13:11:35;25.70;64.00
18321;DHT22;54904;54.350;18.664;2022-07-29T13:14:06;25.70;63.50
18321;DHT22;54904;54.350;18.664;2022-07-29T13:16:34;25.60;63.20
18321;DHT22;54904;54.350;18.664;2022-07-29T13:19:10;25.60;63.90
18321;DHT22;54904;54.350;18.664;2022-07-29T13:21:38;25.60;64.40
18321;DHT22;54904;54.350;18.664;2022-07-29T13:24:06;25.60;64.70
18321;DHT22;54904;54.350;18.664;2022-07-29T13:26:34;25.60;65.00
18321;DHT22;54904;54.350;18.664;2022-07-29T13:29:03;25.50;65.30
18321;DHT22;54904;54.350;18.664;2022-07-29T13:31:30;25.40;64.90
18321;DHT22;54904;54.350;18.664;2022-07-29T13:33:57;25.40;66.20
18321;DHT22;54904;54.350;18.664;2022-07-29T13:36:24;25.30;66.60
18321;DHT22;54904;54.350;18.664;2022-07-29T13:38:52;25.30;67.40
18321;DHT22;54904;54.350;18.664;2022-07-29T13:41:19;25.20;68.10
18321;DHT22;54904;54.350;18.664;2022-07-29T13:43:46;25.20;69.90
18321;DHT22;54904;54.350;18.664;2022-07-29T13:46:14;25.20;69.40
18321;DHT22;54904;54.350;18.664;2022-07-29T13:48:41;25.10;69.90
18321;DHT22;54904;54.350;18.664;2022-07-29T13:51:08;25.00;70.60
18321;DHT22;54904;54.350;18.664;2022-07-29T13:53:35;25.00;70.90
18321;DHT22;54904;54.350;18.664;2022-07-29T13:56:03;24.80;70.50
18321;DHT22;54904;54.350;18.664;2022-07-29T13:58:31;24.70;70.50
18321;DHT22;54904;54.350;18.664;2022-07-29T14:00:58;24.70;70.90
18321;DHT22;54904;54.350;18.664;2022-07-29T14:03:27;24.70;71.00
18321;DHT22;54904;54.350;18.664;2022-07-29T14:05:54;24.70;71.20
18321;DHT22;54904;54.350;18.664;2022-07-29T14:08:22;24.70;71.60
18321;DHT22;54904;54.350;18.664;2022-07-29T14:10:49;24.60;71.90
18321;DHT22;54904;54.350;18.664;2022-07-29T14:13:16;24.60;72.30
18321;DHT22;54904;54.350;18.664;2022-07-29T14:15:43;24.60;72.50
18321;DHT22;54904;54.350;18.664;2022-07-29T14:18:10;24.60;72.80
18321;DHT22;54904;54.350;18.664;2022-07-29T14:20:38;24.60;73.60
18321;DHT22;54904;54.350;18.664;2022-07-29T14:23:05;24.70;73.10
18321;DHT22;54904;54.350;18.664;2022-07-29T14:25:32;24.70;73.30
18321;DHT22;54904;54.350;18.664;2022-07-29T14:27:59;24.80;73.40
18321;DHT22;54904;54.350;18.664;2022-07-29T14:30:26;24.90;74.00
18321;DHT22;54904;54.350;18.664;2022-07-29T14:32:53;24.90;73.70
18321;DHT22;54904;54.350;18.664;2022-07-29T14:35:20;24.90;72.80
18321;DHT22;54904;54.350;18.664;2022-07-29T14:37:49;24.90;73.10
18321;DHT22;54904;54.350;18.664;2022-07-29T14:40:16;24.90;71.70
18321;DHT22;54904;54.350;18.664;2022-07-29T14:42:43;24.80;71.20
18321;DHT22;54904;54.350;18.664;2022-07-29T14:45:10;24.80;70.80
18321;DHT22;54904;54.350;18.664;2022-07-29T14:47:38;24.80;70.90
18321;DHT22;54904;54.350;18.664;2022-07-29T14:50:06;24.80;71.00
18321;DHT22;54904;54.350;18.664;2022-07-29T14:52:34;24.80;71.60
18321;DHT22;54904;54.350;18.664;2022-07-29T14:55:03;24.70;71.00
18321;DHT22;54904;54.350;18.664;2022-07-29T14:57:30;24.70;71.20
18321;DHT22;54904;54.350;18.664;2022-07-29T14:59:57;24.60;71.10
18321;DHT22;54904;54.350;18.664;2022-07-29T15:02:24;24.60;70.80
18321;DHT22;54904;54.350;18.664;2022-07-29T15:04:51;24.60;70.90
18321;DHT22;54904;54.350;18.664;2022-07-29T15:07:18;24.60;71.30
18321;DHT22;54904;54.350;18.664;2022-07-29T15:09:45;24.60;72.00
18321;DHT22;54904;54.350;18.664;2022-07-29T15:12:14;24.60;71.10
18321;DHT22;54904;54.350;18.664;2022-07-29T15:14:41;24.60;70.90
18321;DHT22;54904;54.350;18.664;2022-07-29T15:17:08;24.60;70.90
18321;DHT22;54904;54.350;18.664;2022-07-29T15:19:35;24.50;71.00
18321;DHT22;54904;54.350;18.664;2022-07-29T15:22:03;24.50;71.20
18321;DHT22;54904;54.350;18.664;2022-07-29T15:24:31;24.50;71.40
18321;DHT22;54904;54.350;18.664;2022-07-29T15:26:58;24.40;72.10
18321;DHT22;54904;54.350;18.664;2022-07-29T15:29:27;24.40;70.80